createdAt,value
2022-08-02T00:01:24.831Z,7.00
2022-08-02T00:06:23.888Z,7.80
2022-08-02T00:11:22.817Z,6.20
2022-08-02T00:16:22.058Z,6.20
2022-08-02T00:21:37.458Z,6.50
2022-08-02T00:26:36.308Z,6.40
2022-08-02T00:31:35.972Z,6.00
2022-08-02T00:36:34.884Z,6.80
2022-08-02T00:41:34.315Z,6.80
2022-08-02T00:46:33.738Z,6.80
2022-08-02T00:51:33.094Z,7.10
2022-08-02T00:56:32.003Z,7.30
2022-08-02T01:01:56.319Z,6.70
2022-08-02T01:06:56.976Z,6.70
2022-08-02T01:11:56.043Z,6.60
2022-08-02T01:17:05.251Z,6.20
2022-08-02T01:22:59.487Z,7.20
2022-08-02T01:28:08.520Z,6.80
2022-08-02T01:33:13.413Z,6.50
2022-08-02T01:38:23.060Z,6.50
2022-08-02T01:43:24.900Z,6.60
2022-08-02T01:48:25.991Z,6.80
2022-08-02T01:53:28.933Z,7.10
2022-08-02T01:58:33.017Z,7.30
2022-08-02T02:03:33.863Z,6.90
2022-08-02T02:08:38.575Z,6.50
2022-08-02T02:13:42.589Z,7.60
2022-08-02T02:18:46.753Z,6.60
2022-08-02T02:23:47.480Z,7.60
2022-08-02T02:28:52.973Z,7.00
2022-08-02T02:34:00.959Z,7.90
2022-08-02T02:39:12.977Z,8.20
2022-08-02T02:44:19.869Z,8.20
2022-08-02T02:49:21.941Z,6.80
2022-08-02T02:54:30.196Z,6.40
2022-08-02T02:59:35.347Z,7.00
2022-08-02T03:04:57.079Z,8.40
2022-08-02T03:09:56.170Z,7.50
2022-08-02T03:14:55.404Z,8.00
2022-08-02T03:19:55.512Z,7.30
2022-08-02T03:24:55.087Z,8.00
2022-08-02T03:29:54.852Z,8.30
2022-08-02T03:34:54.825Z,8.30
2022-08-02T03:39:56.995Z,8.90
2022-08-02T03:44:57.622Z,8.50
2022-08-02T03:49:59.192Z,8.90
2022-08-02T03:54:58.665Z,8.70
2022-08-02T03:59:57.101Z,8.80
2022-08-02T04:04:57.024Z,8.80
2022-08-02T04:09:56.051Z,8.60
2022-08-02T04:14:55.426Z,7.80
2022-08-02T04:20:02.454Z,8.00
2022-08-02T04:25:06.576Z,7.30
2022-08-02T04:30:13.251Z,7.40
2022-08-02T04:35:20.694Z,6.70
2022-08-02T04:40:20.663Z,7.20
2022-08-02T04:45:21.878Z,6.80
2022-08-02T04:50:21.882Z,6.70
2022-08-02T04:55:20.849Z,6.40
2022-08-02T05:00:22.331Z,7.00
2022-08-02T05:05:21.992Z,6.20
2022-08-02T05:10:23.743Z,5.50
2022-08-02T05:15:22.979Z,5.70
2022-08-02T05:20:22.757Z,4.60
2022-08-02T05:25:21.336Z,4.90
2022-08-02T05:30:20.531Z,4.50
2022-08-02T05:35:23.260Z,4.30
2022-08-02T05:40:25.517Z,3.20
2022-08-02T05:45:26.073Z,2.80
2022-08-02T05:50:25.254Z,3.10
2022-08-02T05:55:35.147Z,2.50
2022-08-02T06:00:36.910Z,2.60
2022-08-02T06:05:43.768Z,2.00
2022-08-02T06:10:44.452Z,2.10
2022-08-02T06:15:53.464Z,2.20
2022-08-02T06:20:56.595Z,1.70
2022-08-02T06:25:58.081Z,1.70
2022-08-02T06:30:57.881Z,1.30
2022-08-02T06:36:10.100Z,1.20
2022-08-02T06:41:14.680Z,1.50
2022-08-02T06:46:54.297Z,1.30
2022-08-02T06:51:34.369Z,1.00
2022-08-02T06:56:33.965Z,0.90
2022-08-02T07:01:38.555Z,1.10
2022-08-02T07:06:38.652Z,1.30
2022-08-02T07:11:37.933Z,0.80
2022-08-02T07:16:38.619Z,1.00
2022-08-02T07:21:56.339Z,0.90
2022-08-02T07:27:10.384Z,1.40
2022-08-02T07:32:11.092Z,1.20
2022-08-02T07:37:20.614Z,1.30
2022-08-02T07:42:31.339Z,1.50
2022-08-02T07:47:31.367Z,1.40
2022-08-02T07:52:30.320Z,5.90
2022-08-02T07:57:28.962Z,1.60
2022-08-02T08:02:28.641Z,1.40
2022-08-02T08:07:28.027Z,1.20
2022-08-02T08:12:26.838Z,1.70
2022-08-02T08:17:27.032Z,1.70
2022-08-02T08:22:26.465Z,1.60
2022-08-02T08:27:25.902Z,1.40
2022-08-02T08:32:25.223Z,1.70
2022-08-02T08:37:26.518Z,2.00
2022-08-02T08:42:25.222Z,1.60
2022-08-02T08:47:33.759Z,2.10
2022-08-02T08:52:37.328Z,2.20
2022-08-02T08:57:39.494Z,3.00
2022-08-02T09:02:40.546Z,6.90
2022-08-02T09:07:39.500Z,2.20
2022-08-02T09:12:39.079Z,1.90
2022-08-02T09:17:51.617Z,2.10
2022-08-02T09:23:09.197Z,2.80
2022-08-02T09:28:09.874Z,2.80
2022-08-02T09:33:09.866Z,2.10
2022-08-02T09:38:18.009Z,2.40
2022-08-02T09:43:20.296Z,2.10
2022-08-02T09:48:19.063Z,2.80
2022-08-02T09:53:21.158Z,2.20
2022-08-02T09:58:25.306Z,2.30
2022-08-02T10:03:25.319Z,2.20
2022-08-02T10:08:35.116Z,2.70
2022-08-02T10:13:37.395Z,2.20
2022-08-02T10:18:40.222Z,3.60
2022-08-02T10:23:43.855Z,2.60
2022-08-02T10:28:43.783Z,3.50
2022-08-02T10:33:49.890Z,3.50
2022-08-02T10:38:51.264Z,2.20
2022-08-02T10:43:52.974Z,2.50
2022-08-02T10:49:38.554Z,2.20
2022-08-02T10:54:34.081Z,2.80
2022-08-02T10:59:36.447Z,3.50
2022-08-02T11:05:08.034Z,2.60
2022-08-02T11:10:39.214Z,2.90
2022-08-02T11:16:05.387Z,3.20
2022-08-02T11:21:28.837Z,2.70
2022-08-02T11:26:48.776Z,3.50
2022-08-02T11:31:49.478Z,3.00
2022-08-02T11:36:54.362Z,4.00
2022-08-02T11:41:58.912Z,3.40
2022-08-02T11:47:04.154Z,3.00
2022-08-02T11:52:06.892Z,3.30
2022-08-02T11:57:22.213Z,3.30
2022-08-02T12:02:23.517Z,3.20
2022-08-02T12:07:34.928Z,3.20
2022-08-02T12:12:34.853Z,4.20
2022-08-02T12:17:51.338Z,3.70
2022-08-02T12:22:50.045Z,4.10
2022-08-02T12:27:53.212Z,3.40
2022-08-02T12:32:53.432Z,3.10
2022-08-02T12:37:53.898Z,3.40
2022-08-02T12:42:55.471Z,3.30
2022-08-02T12:47:57.701Z,3.20
2022-08-02T12:53:10.154Z,3.90
2022-08-02T12:58:09.857Z,3.70
2022-08-02T13:04:07.641Z,3.20
2022-08-02T13:08:29.170Z,3.30
2022-08-02T13:13:28.049Z,3.90
2022-08-02T13:18:30.431Z,3.50
2022-08-02T13:23:54.444Z,3.60
2022-08-02T13:28:48.539Z,3.00
2022-08-02T13:33:47.872Z,3.30
2022-08-02T13:38:46.259Z,3.60
2022-08-02T13:43:53.462Z,3.80
2022-08-02T13:48:56.254Z,3.80
2022-08-02T13:53:55.577Z,4.10
2022-08-02T13:58:54.873Z,3.50
2022-08-02T14:04:06.089Z,4.70
2022-08-02T14:09:08.706Z,4.10
2022-08-02T14:14:16.934Z,4.10
2022-08-02T14:19:17.498Z,3.60
2022-08-02T14:24:17.498Z,2.80
2022-08-02T14:29:17.346Z,3.20
2022-08-02T14:34:16.587Z,3.30
2022-08-02T14:39:15.389Z,3.00
2022-08-02T14:44:14.441Z,3.90
2022-08-02T14:49:24.312Z,3.20
2022-08-02T14:54:30.050Z,3.40
2022-08-02T14:59:31.065Z,3.20
2022-08-02T15:04:39.043Z,4.00
2022-08-02T15:09:41.424Z,3.60
2022-08-02T15:14:41.216Z,3.70
2022-08-02T15:19:56.417Z,3.30
2022-08-02T15:24:58.307Z,3.20
2022-08-02T15:30:00.511Z,3.60
2022-08-02T15:35:00.062Z,8.60
2022-08-02T15:39:59.321Z,2.90
2022-08-02T15:44:57.613Z,3.20
2022-08-02T15:49:58.602Z,3.50
2022-08-02T15:54:58.311Z,3.40
2022-08-02T16:00:15.761Z,3.30
2022-08-02T16:05:18.443Z,3.30
2022-08-02T16:10:18.331Z,3.20
2022-08-02T16:15:18.161Z,2.90
2022-08-02T16:20:18.173Z,3.70
2022-08-02T16:25:17.677Z,3.60
2022-08-02T16:30:18.220Z,2.70
2022-08-02T16:35:17.160Z,3.10
2022-08-02T16:40:17.759Z,3.10
2022-08-02T16:45:17.161Z,3.10
2022-08-02T16:50:28.629Z,3.10
2022-08-02T16:55:29.312Z,3.10
2022-08-02T17:00:47.829Z,3.30
2022-08-02T17:05:55.921Z,3.00
2022-08-02T17:10:55.451Z,3.10
2022-08-02T17:16:17.082Z,3.10
2022-08-02T17:21:14.174Z,3.30
2022-08-02T17:26:18.010Z,3.20
2022-08-02T17:31:17.238Z,3.40
2022-08-02T17:36:18.508Z,3.70
2022-08-02T17:41:19.793Z,5.40
2022-08-02T17:46:37.189Z,3.90
2022-08-02T17:52:49.279Z,3.70
2022-08-02T17:56:55.936Z,3.70
2022-08-02T18:02:01.140Z,3.30
2022-08-02T18:07:09.437Z,3.10
2022-08-02T18:12:09.944Z,3.80
2022-08-02T18:17:08.566Z,3.70
2022-08-02T18:22:10.714Z,3.40
2022-08-02T18:27:10.786Z,3.80
2022-08-02T18:32:11.585Z,3.90
2022-08-02T18:37:11.675Z,4.70
2022-08-02T18:42:11.143Z,4.10
2022-08-02T18:47:17.015Z,4.30
2022-08-02T18:52:16.169Z,4.20
2022-08-02T18:58:19.246Z,3.70
2022-08-02T19:02:49.957Z,4.60
2022-08-02T19:07:54.546Z,4.30
2022-08-02T19:12:53.295Z,4.10
2022-08-02T19:17:57.206Z,4.40
2022-08-02T19:22:56.751Z,4.80
2022-08-02T19:27:56.551Z,4.60
2022-08-02T19:33:00.129Z,4.60
2022-08-02T19:38:06.776Z,4.70
2022-08-02T19:44:24.592Z,4.00
2022-08-02T19:48:25.535Z,4.40
2022-08-02T19:53:28.789Z,4.70
2022-08-02T19:58:28.295Z,4.50
2022-08-02T20:03:51.348Z,4.60
2022-08-02T20:08:53.031Z,5.10
2022-08-02T20:13:55.936Z,5.20
2022-08-02T20:18:54.938Z,5.30
2022-08-02T20:23:53.982Z,4.40
2022-08-02T20:28:53.053Z,4.60
2022-08-02T20:33:56.023Z,5.40
2022-08-02T20:38:55.936Z,4.70
2022-08-02T20:43:55.376Z,4.50
2022-08-02T20:48:57.500Z,4.90
2022-08-02T20:54:00.295Z,5.00
2022-08-02T20:59:03.686Z,4.80
2022-08-02T21:04:21.212Z,5.10
2022-08-02T21:09:23.855Z,5.80
2022-08-02T21:14:39.787Z,7.20
2022-08-02T21:19:44.208Z,7.00
2022-08-02T21:24:43.885Z,6.30
2022-08-02T21:29:47.253Z,6.20
2022-08-02T21:34:48.300Z,6.00
2022-08-02T21:39:49.799Z,6.80
2022-08-02T21:44:50.754Z,7.20
2022-08-02T21:50:10.537Z,6.90
2022-08-02T21:55:14.986Z,7.50
2022-08-02T22:00:17.873Z,7.30
2022-08-02T22:05:28.736Z,7.70
2022-08-02T22:10:58.066Z,6.00
2022-08-02T22:15:59.337Z,7.80
2022-08-02T22:20:58.855Z,6.60
2022-08-02T22:25:58.481Z,6.20
2022-08-02T22:30:58.154Z,7.20
2022-08-02T22:35:59.919Z,7.10
2022-08-02T22:40:58.546Z,6.30
2022-08-02T22:45:57.593Z,6.30
2022-08-02T22:50:56.898Z,6.20
2022-08-02T22:55:55.626Z,6.40
2022-08-02T23:00:54.387Z,5.90
2022-08-02T23:05:54.492Z,5.50
2022-08-02T23:10:53.432Z,6.10
2022-08-02T23:16:10.270Z,6.20
2022-08-02T23:21:09.253Z,5.80
2022-08-02T23:26:08.588Z,6.00
2022-08-02T23:31:47.310Z,5.90
2022-08-02T23:36:46.724Z,5.50
2022-08-02T23:41:45.277Z,8.00
2022-08-02T23:46:54.891Z,7.60
2022-08-02T23:52:01.282Z,7.50
2022-08-02T23:57:00.492Z,6.70
